createdAt,value
2023-02-22T00:00:50.178Z,97.32
2023-02-22T00:03:52.500Z,96.93
2023-02-22T00:06:54.728Z,89.90
2023-02-22T00:09:57.198Z,93.57
2023-02-22T00:12:59.312Z,94.50
2023-02-22T00:16:02.245Z,93.18
2023-02-22T00:19:06.131Z,97.78
2023-02-22T00:22:08.325Z,96.68
2023-02-22T00:25:10.695Z,91.55
2023-02-22T00:28:15.334Z,98.07
2023-02-22T00:31:18.072Z,93.88
2023-02-22T00:34:23.448Z,94.45
2023-02-22T00:37:25.704Z,92.63
2023-02-22T00:40:31.666Z,93.40
2023-02-22T00:43:34.364Z,97.00
2023-02-22T00:46:36.510Z,91.90
2023-02-22T00:49:39.115Z,90.57
2023-02-22T00:52:41.417Z,92.65
2023-02-22T00:55:43.647Z,86.40
2023-02-22T00:58:45.880Z,90.43
2023-02-22T01:01:48.196Z,94.28
2023-02-22T01:04:50.577Z,86.90
2023-02-22T01:07:53.370Z,91.93
2023-02-22T01:10:56.661Z,91.47
2023-02-22T01:14:00.090Z,85.75
2023-02-22T01:17:02.360Z,88.53
2023-02-22T01:20:12.900Z,85.93
2023-02-22T01:23:17.532Z,90.70
2023-02-22T01:26:19.900Z,87.13
2023-02-22T01:29:22.284Z,87.38
2023-02-22T01:32:24.434Z,86.88
2023-02-22T01:35:30.392Z,85.53
2023-02-22T01:38:32.704Z,87.72
2023-02-22T01:41:35.432Z,86.78
2023-02-22T01:44:40.260Z,82.68
2023-02-22T01:47:42.971Z,87.53
2023-02-22T01:50:54.215Z,88.30
2023-02-22T01:54:02.043Z,80.68
2023-02-22T01:57:07.853Z,84.03
2023-02-22T02:00:15.022Z,84.35
2023-02-22T02:03:23.910Z,87.38
2023-02-22T02:06:28.218Z,86.35
2023-02-22T02:09:57.711Z,81.75
2023-02-22T02:13:00.225Z,83.20
2023-02-22T02:16:02.362Z,87.55
2023-02-22T02:19:09.154Z,84.85
2023-02-22T02:22:52.774Z,81.68
2023-02-22T02:26:33.120Z,82.70
2023-02-22T02:29:56.461Z,80.68
2023-02-22T02:33:21.213Z,82.00
2023-02-22T02:36:37.788Z,79.35
2023-02-22T02:39:53.548Z,84.07
2023-02-22T02:43:26.474Z,79.40
2023-02-22T02:46:31.548Z,80.53
2023-02-22T02:49:40.701Z,82.38
2023-02-22T02:52:45.615Z,74.95
2023-02-22T02:55:47.864Z,81.75
2023-02-22T02:58:53.110Z,75.97
2023-02-22T03:02:07.680Z,79.28
2023-02-22T03:05:35.011Z,76.05
2023-02-22T03:09:07.483Z,80.03
2023-02-22T03:12:28.177Z,79.05
2023-02-22T03:15:51.556Z,73.20
2023-02-22T03:19:16.960Z,77.43
2023-02-22T03:22:26.493Z,83.30
2023-02-22T03:25:40.122Z,76.77
2023-02-22T03:28:46.989Z,82.32
2023-02-22T03:32:01.546Z,79.85
2023-02-22T03:35:21.853Z,81.15
2023-02-22T03:38:29.025Z,80.32
2023-02-22T03:41:35.226Z,79.60
2023-02-22T03:44:40.328Z,82.00
2023-02-22T03:47:50.582Z,81.25
2023-02-22T03:50:53.652Z,82.93
2023-02-22T03:53:59.767Z,84.15
2023-02-22T03:57:10.163Z,82.13
2023-02-22T04:00:20.216Z,82.18
2023-02-22T04:03:23.409Z,82.65
2023-02-22T04:06:27.647Z,83.85
2023-02-22T04:09:30.538Z,80.68
2023-02-22T04:12:33.330Z,81.75
2023-02-22T04:15:39.053Z,81.03
2023-02-22T04:18:44.184Z,80.55
2023-02-22T04:21:47.446Z,84.13
2023-02-22T04:24:56.149Z,88.40
2023-02-22T04:27:58.466Z,82.43
2023-02-22T04:31:13.545Z,82.13
2023-02-22T04:34:16.630Z,83.75
2023-02-22T04:37:19.428Z,90.72
2023-02-22T04:40:21.862Z,85.95
2023-02-22T04:43:24.187Z,85.13
2023-02-22T04:46:28.435Z,81.30
2023-02-22T04:49:31.160Z,82.40
2023-02-22T04:52:34.371Z,83.95
2023-02-22T04:55:36.901Z,86.78
2023-02-22T04:58:39.114Z,83.20
2023-02-22T05:01:41.352Z,86.88
2023-02-22T05:04:43.690Z,86.03
2023-02-22T05:07:46.012Z,89.28
2023-02-22T05:10:48.170Z,83.90
2023-02-22T05:13:50.540Z,86.45
2023-02-22T05:16:54.702Z,89.43
2023-02-22T05:19:56.850Z,89.63
2023-02-22T05:23:00.896Z,87.95
2023-02-22T05:26:03.379Z,86.65
2023-02-22T05:29:05.682Z,96.60
2023-02-22T05:32:07.936Z,88.07
2023-02-22T05:35:10.156Z,85.82
2023-02-22T05:38:15.200Z,82.82
2023-02-22T05:41:17.683Z,87.43
2023-02-22T05:44:20.188Z,85.03
2023-02-22T05:47:22.443Z,96.20
2023-02-22T05:50:24.898Z,89.47
2023-02-22T05:53:27.870Z,92.35
2023-02-22T05:56:30.805Z,95.68
2023-02-22T05:59:32.929Z,92.18
2023-02-22T06:02:35.199Z,90.32
2023-02-22T06:05:38.520Z,88.55
2023-02-22T06:08:40.795Z,91.43
2023-02-22T06:11:42.970Z,92.47
2023-02-22T06:14:48.218Z,91.70
2023-02-22T06:17:50.810Z,98.03
2023-02-22T06:20:53.348Z,97.13
2023-02-22T06:23:55.528Z,92.38
2023-02-22T06:26:59.564Z,90.45
2023-02-22T06:30:02.538Z,92.20
2023-02-22T06:33:04.661Z,91.70
2023-02-22T06:36:07.818Z,95.25
2023-02-22T06:39:12.970Z,91.82
2023-02-22T06:42:15.752Z,90.70
2023-02-22T06:45:18.597Z,93.80
2023-02-22T06:48:20.854Z,92.97
2023-02-22T06:51:23.186Z,94.82
2023-02-22T06:54:25.396Z,94.60
2023-02-22T06:57:27.531Z,93.70
2023-02-22T07:00:32.298Z,103.65
2023-02-22T07:03:35.913Z,95.88
2023-02-22T07:06:38.210Z,100.90
2023-02-22T07:09:40.454Z,96.65
2023-02-22T07:12:42.574Z,96.80
2023-02-22T07:15:45.109Z,91.30
2023-02-22T07:18:47.438Z,97.75
2023-02-22T07:21:51.005Z,95.53
2023-02-22T07:24:53.189Z,95.07
2023-02-22T07:27:55.498Z,98.72
2023-02-22T07:30:57.796Z,97.05
2023-02-22T07:33:59.900Z,87.60
2023-02-22T07:37:02.042Z,92.22
2023-02-22T07:40:04.480Z,91.28
2023-02-22T07:43:18.420Z,94.15
2023-02-22T07:46:21.047Z,88.70
2023-02-22T07:49:23.161Z,88.65
2023-02-22T07:52:25.375Z,88.03
2023-02-22T07:55:29.721Z,86.03
2023-02-22T07:58:32.832Z,87.18
2023-02-22T08:01:37.105Z,87.50
2023-02-22T08:04:39.637Z,91.55
2023-02-22T08:07:43.565Z,84.30
2023-02-22T08:10:45.848Z,90.25
2023-02-22T08:13:48.008Z,92.72
2023-02-22T08:16:50.187Z,82.13
2023-02-22T08:19:52.350Z,90.35
2023-02-22T08:22:55.015Z,84.85
2023-02-22T08:25:57.390Z,87.78
2023-02-22T08:28:59.571Z,86.63
2023-02-22T08:32:01.972Z,91.68
2023-02-22T08:35:04.896Z,89.93
2023-02-22T08:38:08.133Z,91.85
2023-02-22T08:41:10.528Z,89.15
2023-02-22T08:44:12.646Z,89.38
2023-02-22T08:47:14.843Z,93.75
2023-02-22T08:50:33.774Z,93.47
2023-02-22T08:53:36.326Z,91.00
2023-02-22T08:56:38.599Z,89.68
2023-02-22T08:59:40.870Z,88.28
2023-02-22T09:02:43.700Z,91.18
2023-02-22T09:05:45.975Z,90.85
2023-02-22T09:08:48.316Z,89.80
2023-02-22T09:11:52.719Z,92.72
2023-02-22T09:14:55.249Z,93.72
2023-02-22T09:17:57.682Z,95.93
2023-02-22T09:21:00.093Z,97.97
2023-02-22T09:24:08.575Z,96.20
2023-02-22T09:27:12.311Z,92.90
2023-02-22T09:30:25.628Z,102.47
2023-02-22T09:33:27.821Z,94.30
2023-02-22T09:36:30.022Z,94.03
2023-02-22T09:39:37.830Z,94.38
2023-02-22T09:42:48.615Z,94.50
2023-02-22T09:46:03.125Z,99.90
2023-02-22T09:49:14.003Z,100.68
2023-02-22T09:52:35.763Z,100.97
2023-02-22T09:55:48.438Z,100.35
2023-02-22T09:58:54.888Z,98.18
2023-02-22T10:02:25.904Z,95.75
2023-02-22T10:05:34.354Z,102.35
2023-02-22T10:08:38.977Z,100.35
2023-02-22T10:11:56.532Z,97.05
2023-02-22T10:15:16.261Z,99.97
2023-02-22T10:18:44.380Z,104.28
2023-02-22T10:22:37.487Z,95.88
2023-02-22T10:25:42.664Z,98.25
2023-02-22T10:29:05.086Z,104.53
2023-02-22T10:32:23.830Z,95.03
2023-02-22T10:35:35.144Z,106.30
2023-02-22T10:38:39.222Z,95.55
2023-02-22T10:41:48.084Z,94.78
2023-02-22T10:44:50.326Z,103.40
2023-02-22T10:47:56.107Z,107.68
2023-02-22T10:51:04.494Z,101.93
2023-02-22T10:54:15.751Z,97.25
2023-02-22T10:57:24.271Z,97.65
2023-02-22T11:00:37.551Z,106.88
2023-02-22T11:03:39.816Z,100.78
2023-02-22T11:06:45.590Z,104.88
2023-02-22T11:09:53.989Z,112.10
2023-02-22T11:12:56.275Z,109.38
2023-02-22T11:16:17.998Z,128.68
2023-02-22T11:19:29.978Z,118.85
2023-02-22T11:22:42.155Z,127.45
2023-02-22T11:25:45.038Z,124.05
2023-02-22T11:32:23.498Z,122.93
2023-02-22T11:35:28.792Z,120.72
2023-02-22T11:38:31.988Z,117.43
2023-02-22T11:41:35.115Z,126.00
2023-02-22T11:44:37.518Z,127.65
2023-02-22T11:47:52.621Z,130.98
2023-02-22T11:51:00.310Z,133.80
2023-02-22T11:54:19.488Z,136.48
2023-02-22T11:57:39.607Z,117.18
2023-02-22T12:01:01.887Z,118.22
2023-02-22T12:04:28.369Z,114.70
2023-02-22T12:07:52.912Z,100.18
2023-02-22T12:11:44.577Z,118.20
2023-02-22T12:15:15.788Z,113.30
2023-02-22T12:18:23.899Z,118.00
2023-02-22T12:21:29.987Z,119.68
2023-02-22T12:24:42.836Z,115.68
2023-02-22T12:27:55.740Z,117.22
2023-02-22T12:31:13.629Z,113.85
2023-02-22T12:34:37.753Z,113.78
2023-02-22T12:38:01.904Z,119.25
2023-02-22T12:41:14.400Z,114.65
2023-02-22T12:44:22.166Z,118.15
2023-02-22T12:47:37.348Z,110.97
2023-02-22T12:50:41.480Z,106.35
2023-02-22T12:53:52.759Z,110.00
2023-02-22T12:57:12.003Z,108.65
2023-02-22T13:00:42.311Z,110.40
2023-02-22T13:03:45.090Z,102.15
2023-02-22T13:06:50.784Z,103.65
2023-02-22T13:09:54.051Z,108.68
2023-02-22T13:13:07.828Z,102.15
2023-02-22T13:16:40.039Z,95.43
2023-02-22T13:19:45.544Z,97.40
2023-02-22T13:23:12.391Z,94.10
2023-02-22T13:26:28.697Z,107.20
2023-02-22T13:29:38.585Z,96.10
2023-02-22T13:33:19.394Z,97.50
2023-02-22T13:36:53.587Z,106.53
2023-02-22T13:39:56.112Z,103.60
2023-02-22T13:43:16.845Z,99.47
2023-02-22T13:46:19.736Z,103.05
2023-02-22T13:49:25.752Z,102.65
2023-02-22T13:52:31.831Z,94.75
2023-02-22T13:55:36.454Z,103.05
2023-02-22T13:59:01.243Z,96.97
2023-02-22T14:02:08.074Z,104.20
2023-02-22T14:05:50.107Z,100.25
2023-02-22T14:08:52.429Z,99.10
2023-02-22T14:11:56.989Z,99.50
2023-02-22T14:15:26.479Z,102.45
2023-02-22T14:18:43.195Z,102.00
2023-02-22T14:22:04.204Z,94.38
2023-02-22T14:25:07.730Z,98.43
2023-02-22T14:28:35.810Z,100.68
2023-02-22T14:32:06.623Z,100.20
2023-02-22T14:35:27.424Z,93.65
2023-02-22T14:38:32.185Z,101.07
2023-02-22T14:41:37.772Z,94.40
2023-02-22T14:45:10.482Z,100.32
2023-02-22T14:48:43.232Z,105.20
2023-02-22T14:51:59.929Z,96.20
2023-02-22T14:55:14.113Z,98.53
2023-02-22T14:58:36.545Z,91.57
2023-02-22T15:01:50.815Z,94.75
2023-02-22T15:04:57.824Z,94.68
2023-02-22T15:08:03.883Z,100.60
2023-02-22T15:11:06.052Z,101.88
2023-02-22T15:14:25.631Z,102.18
2023-02-22T15:17:28.166Z,99.45
2023-02-22T15:20:30.481Z,91.75
2023-02-22T15:23:53.671Z,93.80
2023-02-22T15:27:05.026Z,93.47
2023-02-22T15:30:30.170Z,96.47
2023-02-22T15:33:38.166Z,90.07
2023-02-22T15:36:41.886Z,95.22
2023-02-22T15:39:44.197Z,95.55
2023-02-22T15:42:58.384Z,101.45
2023-02-22T15:59:13.605Z,99.32
2023-02-22T16:02:34.051Z,100.70
2023-02-22T16:05:56.964Z,96.75
2023-02-22T16:09:26.287Z,99.60
2023-02-22T16:12:28.926Z,100.93
2023-02-22T16:15:34.436Z,96.85
2023-02-22T16:18:39.278Z,98.88
2023-02-22T16:22:03.299Z,103.97
2023-02-22T16:25:32.959Z,103.60
2023-02-22T16:28:52.088Z,99.45
2023-02-22T16:31:54.456Z,101.68
2023-02-22T16:34:57.038Z,109.10
2023-02-22T16:38:17.145Z,94.70
2023-02-22T16:41:20.114Z,100.03
2023-02-22T16:44:25.896Z,99.57
2023-02-22T16:47:28.031Z,100.53
2023-02-22T16:50:30.310Z,86.45
2023-02-22T16:53:33.283Z,98.82
2023-02-22T16:56:35.608Z,102.97
2023-02-22T16:59:39.641Z,100.65
2023-02-22T17:02:41.983Z,94.55
2023-02-22T17:05:45.054Z,98.57
2023-02-22T17:08:48.938Z,94.60
2023-02-22T17:11:53.050Z,97.70
2023-02-22T17:14:55.488Z,87.07
2023-02-22T17:17:57.805Z,83.05
2023-02-22T17:21:02.581Z,77.35
2023-02-22T17:24:04.985Z,92.45
2023-02-22T17:27:07.191Z,94.78
2023-02-22T17:30:13.711Z,83.00
2023-02-22T17:33:18.932Z,91.88
2023-02-22T17:36:21.222Z,87.07
2023-02-22T17:39:23.431Z,84.28
2023-02-22T17:42:25.810Z,76.88
2023-02-22T17:45:29.022Z,77.88
2023-02-22T17:48:31.173Z,85.18
2023-02-22T17:51:33.749Z,74.28
2023-02-22T17:54:36.109Z,69.72
2023-02-22T17:57:40.014Z,73.20
2023-02-22T18:00:45.588Z,71.25
2023-02-22T18:03:47.780Z,82.43
2023-02-22T18:06:50.061Z,80.85
2023-02-22T18:09:52.250Z,75.72
2023-02-22T18:12:56.833Z,84.13
2023-02-22T18:16:05.017Z,83.43
2023-02-22T18:19:07.457Z,79.63
2023-02-22T18:22:09.646Z,81.78
2023-02-22T18:25:14.474Z,80.43
2023-02-22T18:28:20.201Z,81.20
2023-02-22T18:31:23.569Z,91.10
2023-02-22T18:34:26.617Z,81.10
2023-02-22T18:37:28.978Z,83.88
2023-02-22T18:40:31.286Z,78.22
2023-02-22T18:43:36.718Z,82.32
2023-02-22T18:46:39.034Z,80.40
2023-02-22T18:49:42.158Z,78.80
2023-02-22T18:52:46.004Z,78.57
2023-02-22T18:55:48.242Z,83.05
2023-02-22T18:58:54.751Z,80.20
2023-02-22T19:01:57.647Z,82.32
2023-02-22T19:05:00.598Z,84.72
2023-02-22T19:08:02.833Z,80.57
2023-02-22T19:11:15.502Z,84.50
2023-02-22T19:14:19.595Z,96.60
2023-02-22T19:17:22.018Z,87.05
2023-02-22T19:20:25.781Z,83.28
2023-02-22T19:23:28.492Z,92.38
2023-02-22T19:26:31.034Z,88.75
2023-02-22T19:29:33.304Z,91.18
2023-02-22T19:32:36.607Z,87.22
2023-02-22T19:35:39.063Z,92.15
2023-02-22T19:38:41.890Z,90.68
2023-02-22T19:41:44.168Z,90.93
2023-02-22T19:44:48.398Z,93.88
2023-02-22T19:47:55.480Z,85.43
2023-02-22T19:51:06.404Z,90.72
2023-02-22T19:54:12.314Z,94.10
2023-02-22T19:57:14.614Z,90.07
2023-02-22T20:00:24.527Z,90.13
2023-02-22T20:03:28.303Z,89.03
2023-02-22T20:06:42.501Z,87.85
2023-02-22T20:09:44.717Z,87.68
2023-02-22T20:12:46.882Z,85.45
2023-02-22T20:15:50.875Z,91.57
2023-02-22T20:18:54.690Z,88.65
2023-02-22T20:21:57.322Z,87.65
2023-02-22T20:24:59.462Z,94.10
2023-02-22T20:28:01.911Z,95.07
2023-02-22T20:31:11.342Z,91.50
2023-02-22T20:34:13.540Z,92.30
2023-02-22T20:37:16.064Z,91.68
2023-02-22T20:40:18.360Z,98.38
2023-02-22T20:43:20.451Z,102.88
2023-02-22T20:46:23.861Z,101.57
2023-02-22T20:49:27.391Z,98.28
2023-02-22T20:52:29.568Z,100.78
2023-02-22T20:55:31.728Z,88.15
2023-02-22T20:58:33.960Z,94.65
2023-02-22T21:01:36.264Z,97.97
2023-02-22T21:04:38.529Z,97.78
2023-02-22T21:07:40.793Z,96.07
2023-02-22T21:10:46.945Z,95.78
2023-02-22T21:13:49.321Z,95.40
2023-02-22T21:16:52.438Z,94.57
2023-02-22T21:19:55.980Z,93.95
2023-02-22T21:22:58.152Z,96.82
2023-02-22T21:26:00.342Z,94.13
2023-02-22T21:29:05.457Z,95.63
2023-02-22T21:32:08.947Z,98.28
2023-02-22T21:35:11.430Z,100.28
2023-02-22T21:38:14.605Z,100.90
2023-02-22T21:41:17.779Z,99.22
2023-02-22T21:44:21.005Z,100.10
2023-02-22T21:47:23.792Z,96.85
2023-02-22T21:50:30.201Z,93.07
2023-02-22T21:53:32.614Z,94.80
2023-02-22T21:56:37.330Z,98.38
2023-02-22T21:59:39.593Z,101.50
2023-02-22T22:02:41.840Z,90.35
2023-02-22T22:05:46.234Z,101.15
2023-02-22T22:08:48.405Z,93.90
2023-02-22T22:11:58.514Z,104.15
2023-02-22T22:15:00.837Z,96.07
2023-02-22T22:18:06.724Z,99.43
2023-02-22T22:21:22.962Z,103.35
2023-02-22T22:24:28.826Z,100.57
2023-02-22T22:27:30.962Z,98.10
2023-02-22T22:30:37.162Z,103.72
2023-02-22T22:33:42.187Z,96.28
2023-02-22T22:36:44.315Z,102.82
2023-02-22T22:39:46.612Z,99.90
2023-02-22T22:42:49.226Z,104.72
2023-02-22T22:45:51.444Z,99.85
2023-02-22T22:48:53.641Z,103.57
2023-02-22T22:51:55.879Z,97.38
2023-02-22T22:55:00.721Z,106.68
2023-02-22T22:58:03.028Z,95.82
2023-02-22T23:01:06.449Z,101.45
2023-02-22T23:04:16.474Z,107.65
2023-02-22T23:07:19.554Z,101.13
2023-02-22T23:10:27.191Z,101.18
2023-02-22T23:13:29.433Z,99.03
2023-02-22T23:16:35.018Z,99.13
2023-02-22T23:19:37.490Z,99.57
2023-02-22T23:22:40.871Z,98.18
2023-02-22T23:25:43.206Z,96.10
2023-02-22T23:28:47.655Z,98.32
2023-02-22T23:31:50.596Z,99.47
2023-02-22T23:34:53.096Z,99.07
2023-02-22T23:37:58.066Z,102.93
2023-02-22T23:41:04.849Z,98.13
2023-02-22T23:44:08.508Z,97.60
2023-02-22T23:47:10.863Z,118.90
2023-02-22T23:50:13.674Z,100.78
2023-02-22T23:53:15.782Z,100.47
2023-02-22T23:56:22.149Z,99.53
2023-02-22T23:59:26.467Z,103.97
